Paul Spur, Arizona
Current Conditions -  °F | °C
As of 3:56 PM on Friday 31 Oct 2014 (Local Time) from KDUG Reporting Station
Clear Clear  
Wind Chill: 81°   Ceiling: Unl
Heat Index: 81°   Visibility: 10mi
Dew Point: 45°   Wind: 14mph
Humidity: 28%   Direction: 120°ESE
Pressure: 30.03"   Gusts: NA
Location:  31.4518°N, 109.329°W
Report Text: KDUG 312256Z AUTO 12012KT 10SM CLR 27/07 A3003 RMK AO2 SLP108 T02720072
Loading
Personal Weather Stations






























Interactive Weather Map
Tropical Storm Tracking
New forecast layout! Learn more

10-Day Weather Forecast

Advertisements
Track Severe Weather on mobile